sensor_id;sensor_type;location;lat;lon;timestamp;temperature;humidity
38456;DHT22;24237;50.106;20.014;2023-04-03T00:01:07;3.90;99.90
38456;DHT22;24237;50.106;20.014;2023-04-03T00:03:33;3.80;99.90
38456;DHT22;24237;50.106;20.014;2023-04-03T00:05:58;3.60;99.90
38456;DHT22;24237;50.106;20.014;2023-04-03T00:08:24;3.80;99.90
38456;DHT22;24237;50.106;20.014;2023-04-03T00:10:50;3.90;99.90
38456;DHT22;24237;50.106;20.014;2023-04-03T00:13:16;3.60;99.90
38456;DHT22;24237;50.106;20.014;2023-04-03T00:15:41;3.60;99.90
38456;DHT22;24237;50.106;20.014;2023-04-03T00:18:07;3.60;99.90
38456;DHT22;24237;50.106;20.014;2023-04-03T00:20:33;3.60;99.90
38456;DHT22;24237;50.106;20.014;2023-04-03T00:23:01;3.30;99.90
38456;DHT22;24237;50.106;20.014;2023-04-03T00:25:27;3.20;99.90
38456;DHT22;24237;50.106;20.014;2023-04-03T00:27:52;3.10;99.90
38456;DHT22;24237;50.106;20.014;2023-04-03T00:30:20;3.00;99.90
38456;DHT22;24237;50.106;20.014;2023-04-03T00:32:48;3.20;99.90
38456;DHT22;24237;50.106;20.014;2023-04-03T00:35:14;3.20;99.90
38456;DHT22;24237;50.106;20.014;2023-04-03T00:37:41;3.10;99.90
38456;DHT22;24237;50.106;20.014;2023-04-03T00:40:08;3.20;99.90
38456;DHT22;24237;50.106;20.014;2023-04-03T00:42:36;3.30;99.90
38456;DHT22;24237;50.106;20.014;2023-04-03T00:47:28;3.20;99.90
38456;DHT22;24237;50.106;20.014;2023-04-03T00:49:54;3.20;99.90
38456;DHT22;24237;50.106;20.014;2023-04-03T00:52:23;3.20;99.90
38456;DHT22;24237;50.106;20.014;2023-04-03T00:54:52;3.00;99.90
38456;DHT22;24237;50.106;20.014;2023-04-03T00:57:21;3.00;99.90
38456;DHT22;24237;50.106;20.014;2023-04-03T00:59:51;3.10;99.90
38456;DHT22;24237;50.106;20.014;2023-04-03T01:02:18;3.10;99.90
38456;DHT22;24237;50.106;20.014;2023-04-03T01:04:44;3.00;99.90
38456;DHT22;24237;50.106;20.014;2023-04-03T01:07:14;3.00;99.90
38456;DHT22;24237;50.106;20.014;2023-04-03T01:09:41;2.90;99.90
38456;DHT22;24237;50.106;20.014;2023-04-03T01:12:20;2.90;99.90
38456;DHT22;24237;50.106;20.014;2023-04-03T01:14:52;2.90;99.90
38456;DHT22;24237;50.106;20.014;2023-04-03T01:17:38;3.00;99.90
38456;DHT22;24237;50.106;20.014;2023-04-03T01:25:52;2.90;99.90
38456;DHT22;24237;50.106;20.014;2023-04-03T01:28:21;3.00;99.90
38456;DHT22;24237;50.106;20.014;2023-04-03T01:30:51;3.20;99.90
38456;DHT22;24237;50.106;20.014;2023-04-03T01:33:19;3.10;99.90
38456;DHT22;24237;50.106;20.014;2023-04-03T01:35:45;3.00;99.90
38456;DHT22;24237;50.106;20.014;2023-04-03T01:38:11;3.00;99.90
38456;DHT22;24237;50.106;20.014;2023-04-03T01:40:36;3.10;99.90
38456;DHT22;24237;50.106;20.014;2023-04-03T01:43:02;3.20;99.90
38456;DHT22;24237;50.106;20.014;2023-04-03T01:45:28;3.20;99.90
38456;DHT22;24237;50.106;20.014;2023-04-03T01:47:54;3.10;99.90
38456;DHT22;24237;50.106;20.014;2023-04-03T01:50:19;3.00;99.90
38456;DHT22;24237;50.106;20.014;2023-04-03T01:52:45;3.10;99.90
38456;DHT22;24237;50.106;20.014;2023-04-03T01:55:11;3.40;99.90
38456;DHT22;24237;50.106;20.014;2023-04-03T01:57:36;3.20;99.90
38456;DHT22;24237;50.106;20.014;2023-04-03T02:00:03;3.10;99.90
38456;DHT22;24237;50.106;20.014;2023-04-03T02:02:28;3.00;99.90
38456;DHT22;24237;50.106;20.014;2023-04-03T02:04:54;3.00;99.90
38456;DHT22;24237;50.106;20.014;2023-04-03T02:07:20;3.30;99.90
38456;DHT22;24237;50.106;20.014;2023-04-03T02:09:45;3.20;99.90
38456;DHT22;24237;50.106;20.014;2023-04-03T02:12:11;3.20;99.90
38456;DHT22;24237;50.106;20.014;2023-04-03T02:14:36;3.10;99.90
38456;DHT22;24237;50.106;20.014;2023-04-03T02:17:02;3.20;99.90
38456;DHT22;24237;50.106;20.014;2023-04-03T02:19:34;3.40;99.90
38456;DHT22;24237;50.106;20.014;2023-04-03T02:21:59;3.10;99.90
38456;DHT22;24237;50.106;20.014;2023-04-03T02:24:25;2.90;99.90
38456;DHT22;24237;50.106;20.014;2023-04-03T02:26:51;3.00;99.90
38456;DHT22;24237;50.106;20.014;2023-04-03T02:29:16;3.00;99.90
38456;DHT22;24237;50.106;20.014;2023-04-03T02:31:42;3.00;99.90
38456;DHT22;24237;50.106;20.014;2023-04-03T02:34:07;2.90;99.90
38456;DHT22;24237;50.106;20.014;2023-04-03T02:36:33;2.80;99.90
38456;DHT22;24237;50.106;20.014;2023-04-03T02:38:58;2.80;99.90
38456;DHT22;24237;50.106;20.014;2023-04-03T02:41:24;2.90;99.90
38456;DHT22;24237;50.106;20.014;2023-04-03T02:43:53;3.00;99.90
38456;DHT22;24237;50.106;20.014;2023-04-03T02:46:18;3.00;99.90
38456;DHT22;24237;50.106;20.014;2023-04-03T02:48:44;3.00;99.90
38456;DHT22;24237;50.106;20.014;2023-04-03T02:51:10;3.00;99.90
38456;DHT22;24237;50.106;20.014;2023-04-03T02:53:35;3.00;99.90
38456;DHT22;24237;50.106;20.014;2023-04-03T02:56:01;3.10;99.90
38456;DHT22;24237;50.106;20.014;2023-04-03T02:58:26;3.00;99.90
38456;DHT22;24237;50.106;20.014;2023-04-03T03:00:52;2.90;99.90
38456;DHT22;24237;50.106;20.014;2023-04-03T03:03:18;2.90;99.90
38456;DHT22;24237;50.106;20.014;2023-04-03T03:05:44;3.10;99.90
38456;DHT22;24237;50.106;20.014;2023-04-03T03:08:09;2.90;99.90
38456;DHT22;24237;50.106;20.014;2023-04-03T03:10:35;3.00;99.90
38456;DHT22;24237;50.106;20.014;2023-04-03T03:13:01;3.00;99.90
38456;DHT22;24237;50.106;20.014;2023-04-03T03:15:26;3.00;99.90
38456;DHT22;24237;50.106;20.014;2023-04-03T03:17:52;3.10;99.90
38456;DHT22;24237;50.106;20.014;2023-04-03T03:20:17;3.10;99.90
38456;DHT22;24237;50.106;20.014;2023-04-03T03:22:43;2.90;99.90
38456;DHT22;24237;50.106;20.014;2023-04-03T03:25:08;2.80;99.90
38456;DHT22;24237;50.106;20.014;2023-04-03T03:27:34;2.70;99.90
38456;DHT22;24237;50.106;20.014;2023-04-03T03:30:00;2.70;99.90
38456;DHT22;24237;50.106;20.014;2023-04-03T03:32:25;2.70;99.90
38456;DHT22;24237;50.106;20.014;2023-04-03T03:34:51;2.70;99.90
38456;DHT22;24237;50.106;20.014;2023-04-03T03:37:16;2.70;99.90
38456;DHT22;24237;50.106;20.014;2023-04-03T03:39:42;2.60;99.90
38456;DHT22;24237;50.106;20.014;2023-04-03T03:42:08;2.60;99.90
38456;DHT22;24237;50.106;20.014;2023-04-03T03:44:33;2.90;99.90
38456;DHT22;24237;50.106;20.014;2023-04-03T03:46:59;2.80;99.90
38456;DHT22;24237;50.106;20.014;2023-04-03T03:49:25;3.00;99.90
38456;DHT22;24237;50.106;20.014;2023-04-03T03:51:50;3.10;99.90
38456;DHT22;24237;50.106;20.014;2023-04-03T03:54:17;2.80;99.90
38456;DHT22;24237;50.106;20.014;2023-04-03T03:56:42;2.80;99.90
38456;DHT22;24237;50.106;20.014;2023-04-03T03:59:08;2.70;99.90
38456;DHT22;24237;50.106;20.014;2023-04-03T04:01:33;2.60;99.90
38456;DHT22;24237;50.106;20.014;2023-04-03T04:03:59;2.60;99.90
38456;DHT22;24237;50.106;20.014;2023-04-03T04:06:25;2.60;99.90
38456;DHT22;24237;50.106;20.014;2023-04-03T04:08:51;2.60;99.90
38456;DHT22;24237;50.106;20.014;2023-04-03T04:11:16;2.70;99.90
38456;DHT22;24237;50.106;20.014;2023-04-03T04:13:42;2.60;99.90
38456;DHT22;24237;50.106;20.014;2023-04-03T04:16:08;2.60;99.90
38456;DHT22;24237;50.106;20.014;2023-04-03T04:18:35;2.70;99.90
38456;DHT22;24237;50.106;20.014;2023-04-03T04:21:00;2.90;99.90
38456;DHT22;24237;50.106;20.014;2023-04-03T04:23:26;2.70;99.90
38456;DHT22;24237;50.106;20.014;2023-04-03T04:25:51;2.70;99.90
38456;DHT22;24237;50.106;20.014;2023-04-03T04:28:17;2.40;99.90
38456;DHT22;24237;50.106;20.014;2023-04-03T04:30:43;2.30;99.90
38456;DHT22;24237;50.106;20.014;2023-04-03T04:33:09;2.40;99.90
38456;DHT22;24237;50.106;20.014;2023-04-03T04:35:35;2.50;99.90
38456;DHT22;24237;50.106;20.014;2023-04-03T04:38:01;2.70;99.90
38456;DHT22;24237;50.106;20.014;2023-04-03T04:40:27;2.50;99.90
38456;DHT22;24237;50.106;20.014;2023-04-03T04:42:53;2.70;99.90
38456;DHT22;24237;50.106;20.014;2023-04-03T04:45:18;2.70;99.90
38456;DHT22;24237;50.106;20.014;2023-04-03T04:47:44;2.70;99.90
38456;DHT22;24237;50.106;20.014;2023-04-03T04:50:10;2.60;99.90
38456;DHT22;24237;50.106;20.014;2023-04-03T04:52:36;2.50;99.90
38456;DHT22;24237;50.106;20.014;2023-04-03T04:55:02;2.40;99.90
38456;DHT22;24237;50.106;20.014;2023-04-03T04:57:27;2.60;99.90
38456;DHT22;24237;50.106;20.014;2023-04-03T04:59:53;2.40;99.90
38456;DHT22;24237;50.106;20.014;2023-04-03T05:02:18;2.40;99.90
38456;DHT22;24237;50.106;20.014;2023-04-03T05:04:44;2.70;99.90
38456;DHT22;24237;50.106;20.014;2023-04-03T05:07:10;2.80;99.90
38456;DHT22;24237;50.106;20.014;2023-04-03T05:09:35;2.80;99.90
38456;DHT22;24237;50.106;20.014;2023-04-03T05:12:01;3.20;99.90
38456;DHT22;24237;50.106;20.014;2023-04-03T05:14:28;3.20;99.90
38456;DHT22;24237;50.106;20.014;2023-04-03T05:16:53;3.20;99.90
38456;DHT22;24237;50.106;20.014;2023-04-03T05:19:20;3.00;99.90
38456;DHT22;24237;50.106;20.014;2023-04-03T05:21:46;3.20;99.90
38456;DHT22;24237;50.106;20.014;2023-04-03T05:24:12;3.20;99.90
38456;DHT22;24237;50.106;20.014;2023-04-03T05:26:38;3.00;99.90
38456;DHT22;24237;50.106;20.014;2023-04-03T05:29:04;3.00;99.90
38456;DHT22;24237;50.106;20.014;2023-04-03T05:31:30;2.90;99.90
38456;DHT22;24237;50.106;20.014;2023-04-03T05:33:55;2.70;99.90
38456;DHT22;24237;50.106;20.014;2023-04-03T05:36:21;2.70;99.90
38456;DHT22;24237;50.106;20.014;2023-04-03T05:38:47;2.70;99.90
38456;DHT22;24237;50.106;20.014;2023-04-03T05:41:14;2.80;99.90
38456;DHT22;24237;50.106;20.014;2023-04-03T05:43:39;2.90;99.90
38456;DHT22;24237;50.106;20.014;2023-04-03T05:46:15;2.80;99.90
38456;DHT22;24237;50.106;20.014;2023-04-03T05:48:42;2.60;99.90
38456;DHT22;24237;50.106;20.014;2023-04-03T05:51:32;2.40;99.90
38456;DHT22;24237;50.106;20.014;2023-04-03T05:54:21;2.20;99.90
38456;DHT22;24237;50.106;20.014;2023-04-03T05:56:44;2.20;99.90
38456;DHT22;24237;50.106;20.014;2023-04-03T05:59:10;2.30;99.90
38456;DHT22;24237;50.106;20.014;2023-04-03T06:01:36;2.10;99.90
38456;DHT22;24237;50.106;20.014;2023-04-03T06:04:02;2.00;99.90
38456;DHT22;24237;50.106;20.014;2023-04-03T06:06:50;1.90;99.90
38456;DHT22;24237;50.106;20.014;2023-04-03T06:09:18;2.00;99.90
38456;DHT22;24237;50.106;20.014;2023-04-03T06:11:44;1.90;99.90
38456;DHT22;24237;50.106;20.014;2023-04-03T06:14:10;2.20;99.90
38456;DHT22;24237;50.106;20.014;2023-04-03T06:16:36;2.30;99.90
38456;DHT22;24237;50.106;20.014;2023-04-03T06:19:02;2.30;99.90
38456;DHT22;24237;50.106;20.014;2023-04-03T06:21:28;2.00;99.90
38456;DHT22;24237;50.106;20.014;2023-04-03T06:23:53;2.00;99.90
38456;DHT22;24237;50.106;20.014;2023-04-03T06:26:19;2.10;99.90
38456;DHT22;24237;50.106;20.014;2023-04-03T06:28:46;2.20;99.90
38456;DHT22;24237;50.106;20.014;2023-04-03T06:31:11;2.40;99.90
38456;DHT22;24237;50.106;20.014;2023-04-03T06:33:37;2.50;99.90
38456;DHT22;24237;50.106;20.014;2023-04-03T06:36:06;2.50;99.90
38456;DHT22;24237;50.106;20.014;2023-04-03T06:38:35;2.80;99.90
38456;DHT22;24237;50.106;20.014;2023-04-03T06:41:00;2.70;99.90
38456;DHT22;24237;50.106;20.014;2023-04-03T06:43:26;2.70;99.90
38456;DHT22;24237;50.106;20.014;2023-04-03T06:45:52;2.60;99.90
38456;DHT22;24237;50.106;20.014;2023-04-03T06:48:18;2.40;99.90
38456;DHT22;24237;50.106;20.014;2023-04-03T06:50:43;2.40;99.90
38456;DHT22;24237;50.106;20.014;2023-04-03T06:53:10;2.40;99.90
38456;DHT22;24237;50.106;20.014;2023-04-03T06:55:36;2.40;99.90
38456;DHT22;24237;50.106;20.014;2023-04-03T06:58:02;2.40;99.90
38456;DHT22;24237;50.106;20.014;2023-04-03T07:00:28;2.60;99.90
38456;DHT22;24237;50.106;20.014;2023-04-03T07:02:54;2.80;99.90
38456;DHT22;24237;50.106;20.014;2023-04-03T07:05:21;2.60;99.90
38456;DHT22;24237;50.106;20.014;2023-04-03T07:07:47;2.90;99.90
38456;DHT22;24237;50.106;20.014;2023-04-03T07:10:13;2.70;99.90
38456;DHT22;24237;50.106;20.014;2023-04-03T07:12:38;2.80;99.90
38456;DHT22;24237;50.106;20.014;2023-04-03T07:15:05;2.80;99.90
38456;DHT22;24237;50.106;20.014;2023-04-03T07:17:31;2.70;99.90
38456;DHT22;24237;50.106;20.014;2023-04-03T07:19:57;2.90;99.90
38456;DHT22;24237;50.106;20.014;2023-04-03T07:22:23;2.80;99.90
38456;DHT22;24237;50.106;20.014;2023-04-03T07:24:48;2.90;99.90
38456;DHT22;24237;50.106;20.014;2023-04-03T07:27:14;3.00;99.90
38456;DHT22;24237;50.106;20.014;2023-04-03T07:29:39;3.20;99.90
38456;DHT22;24237;50.106;20.014;2023-04-03T07:32:06;3.20;99.90
38456;DHT22;24237;50.106;20.014;2023-04-03T07:34:32;2.90;99.90
38456;DHT22;24237;50.106;20.014;2023-04-03T07:36:58;2.90;99.90
38456;DHT22;24237;50.106;20.014;2023-04-03T07:39:24;2.90;99.90
38456;DHT22;24237;50.106;20.014;2023-04-03T07:41:50;3.20;99.90
38456;DHT22;24237;50.106;20.014;2023-04-03T07:44:17;3.40;99.90
38456;DHT22;24237;50.106;20.014;2023-04-03T07:46:43;3.40;99.90
38456;DHT22;24237;50.106;20.014;2023-04-03T07:49:08;3.10;99.90
38456;DHT22;24237;50.106;20.014;2023-04-03T07:51:34;3.00;99.90
38456;DHT22;24237;50.106;20.014;2023-04-03T07:54:01;3.20;99.90
38456;DHT22;24237;50.106;20.014;2023-04-03T07:56:27;3.70;99.90
38456;DHT22;24237;50.106;20.014;2023-04-03T07:58:52;4.00;99.90
38456;DHT22;24237;50.106;20.014;2023-04-03T08:01:18;4.30;99.90
38456;DHT22;24237;50.106;20.014;2023-04-03T08:03:44;4.00;99.90
38456;DHT22;24237;50.106;20.014;2023-04-03T08:06:10;3.50;99.90
38456;DHT22;24237;50.106;20.014;2023-04-03T08:08:36;3.40;99.90
38456;DHT22;24237;50.106;20.014;2023-04-03T08:11:02;3.20;99.90
38456;DHT22;24237;50.106;20.014;2023-04-03T08:13:29;3.10;99.90
38456;DHT22;24237;50.106;20.014;2023-04-03T08:15:55;3.20;99.90
38456;DHT22;24237;50.106;20.014;2023-04-03T08:18:23;3.20;99.90
38456;DHT22;24237;50.106;20.014;2023-04-03T08:20:50;3.40;99.90
38456;DHT22;24237;50.106;20.014;2023-04-03T08:23:17;3.90;99.90
38456;DHT22;24237;50.106;20.014;2023-04-03T08:25:43;4.20;99.90
38456;DHT22;24237;50.106;20.014;2023-04-03T08:28:10;4.10;99.90
38456;DHT22;24237;50.106;20.014;2023-04-03T08:30:38;4.00;99.90
38456;DHT22;24237;50.106;20.014;2023-04-03T08:33:04;3.60;99.90
38456;DHT22;24237;50.106;20.014;2023-04-03T08:35:30;3.40;99.90
38456;DHT22;24237;50.106;20.014;2023-04-03T08:37:55;3.70;99.90
38456;DHT22;24237;50.106;20.014;2023-04-03T08:40:21;3.50;99.90
38456;DHT22;24237;50.106;20.014;2023-04-03T08:45:43;3.60;99.90
38456;DHT22;24237;50.106;20.014;2023-04-03T08:48:20;3.40;99.90
38456;DHT22;24237;50.106;20.014;2023-04-03T08:50:50;3.40;99.90
38456;DHT22;24237;50.106;20.014;2023-04-03T08:53:29;3.50;99.90
38456;DHT22;24237;50.106;20.014;2023-04-03T08:55:58;3.70;99.90
38456;DHT22;24237;50.106;20.014;2023-04-03T09:01:29;3.70;99.90
38456;DHT22;24237;50.106;20.014;2023-04-03T09:03:56;3.70;99.90
38456;DHT22;24237;50.106;20.014;2023-04-03T09:06:25;3.70;99.90
38456;DHT22;24237;50.106;20.014;2023-04-03T09:09:14;3.20;99.90
38456;DHT22;24237;50.106;20.014;2023-04-03T09:11:55;3.00;99.90
38456;DHT22;24237;50.106;20.014;2023-04-03T09:17:20;2.90;99.90
38456;DHT22;24237;50.106;20.014;2023-04-03T09:19:56;3.20;99.90
38456;DHT22;24237;50.106;20.014;2023-04-03T09:22:25;3.50;99.90
38456;DHT22;24237;50.106;20.014;2023-04-03T09:25:18;3.60;99.90
38456;DHT22;24237;50.106;20.014;2023-04-03T09:27:45;3.60;99.90
38456;DHT22;24237;50.106;20.014;2023-04-03T09:30:18;3.80;99.90
38456;DHT22;24237;50.106;20.014;2023-04-03T09:32:45;4.00;99.90
38456;DHT22;24237;50.106;20.014;2023-04-03T09:35:30;4.00;99.90
38456;DHT22;24237;50.106;20.014;2023-04-03T09:38:14;4.10;99.90
38456;DHT22;24237;50.106;20.014;2023-04-03T09:40:42;4.20;99.90
38456;DHT22;24237;50.106;20.014;2023-04-03T09:43:30;4.60;99.90
38456;DHT22;24237;50.106;20.014;2023-04-03T09:46:15;4.60;99.90
38456;DHT22;24237;50.106;20.014;2023-04-03T09:48:57;4.60;99.90
38456;DHT22;24237;50.106;20.014;2023-04-03T09:51:28;4.50;99.90
38456;DHT22;24237;50.106;20.014;2023-04-03T09:53:55;3.80;99.90
38456;DHT22;24237;50.106;20.014;2023-04-03T09:56:28;3.90;99.90
38456;DHT22;24237;50.106;20.014;2023-04-03T10:01:39;3.60;99.90
38456;DHT22;24237;50.106;20.014;2023-04-03T10:04:15;3.70;99.90
38456;DHT22;24237;50.106;20.014;2023-04-03T10:06:46;3.80;99.90
38456;DHT22;24237;50.106;20.014;2023-04-03T10:14:25;3.80;99.90
38456;DHT22;24237;50.106;20.014;2023-04-03T10:19:49;4.30;99.90
38456;DHT22;24237;50.106;20.014;2023-04-03T10:22:30;4.60;99.90
38456;DHT22;24237;50.106;20.014;2023-04-03T10:32:58;3.60;99.90
38456;DHT22;24237;50.106;20.014;2023-04-03T10:46:48;3.90;99.90
38456;DHT22;24237;50.106;20.014;2023-04-03T10:52:07;4.80;99.90
38456;DHT22;24237;50.106;20.014;2023-04-03T10:54:46;4.90;99.90
38456;DHT22;24237;50.106;20.014;2023-04-03T10:57:14;4.80;99.90
38456;DHT22;24237;50.106;20.014;2023-04-03T11:00:03;4.90;99.90
38456;DHT22;24237;50.106;20.014;2023-04-03T11:02:39;5.20;99.90
38456;DHT22;24237;50.106;20.014;2023-04-03T11:05:17;4.60;99.90
38456;DHT22;24237;50.106;20.014;2023-04-03T11:07:47;4.60;99.90
38456;DHT22;24237;50.106;20.014;2023-04-03T11:10:41;4.70;99.90
38456;DHT22;24237;50.106;20.014;2023-04-03T11:15:39;5.40;99.90
38456;DHT22;24237;50.106;20.014;2023-04-03T11:18:13;5.50;99.90
38456;DHT22;24237;50.106;20.014;2023-04-03T11:20:44;5.50;99.90
38456;DHT22;24237;50.106;20.014;2023-04-03T11:23:21;6.00;99.90
38456;DHT22;24237;50.106;20.014;2023-04-03T11:25:53;6.30;99.90
38456;DHT22;24237;50.106;20.014;2023-04-03T11:28:19;6.60;99.90
38456;DHT22;24237;50.106;20.014;2023-04-03T11:36:30;7.00;99.90
38456;DHT22;24237;50.106;20.014;2023-04-03T11:39:02;7.00;99.90
38456;DHT22;24237;50.106;20.014;2023-04-03T11:41:33;6.40;99.90
38456;DHT22;24237;50.106;20.014;2023-04-03T11:44:05;6.20;99.90
38456;DHT22;24237;50.106;20.014;2023-04-03T12:05:50;6.60;99.90
38456;DHT22;24237;50.106;20.014;2023-04-03T12:08:24;6.10;99.90
38456;DHT22;24237;50.106;20.014;2023-04-03T12:16:02;8.00;99.20
38456;DHT22;24237;50.106;20.014;2023-04-03T12:21:23;6.80;99.60
38456;DHT22;24237;50.106;20.014;2023-04-03T12:32:37;6.00;99.90
38456;DHT22;24237;50.106;20.014;2023-04-03T12:41:30;8.00;99.40
38456;DHT22;24237;50.106;20.014;2023-04-03T12:46:48;7.40;96.90
38456;DHT22;24237;50.106;20.014;2023-04-03T12:49:33;7.10;98.70
38456;DHT22;24237;50.106;20.014;2023-04-03T12:52:04;6.80;99.30
38456;DHT22;24237;50.106;20.014;2023-04-03T12:54:39;6.80;99.30
38456;DHT22;24237;50.106;20.014;2023-04-03T12:57:20;6.40;99.20
38456;DHT22;24237;50.106;20.014;2023-04-03T12:59:47;6.50;98.80
38456;DHT22;24237;50.106;20.014;2023-04-03T13:02:21;6.70;98.80
38456;DHT22;24237;50.106;20.014;2023-04-03T13:04:49;6.60;98.30
38456;DHT22;24237;50.106;20.014;2023-04-03T13:07:29;6.50;98.60
38456;DHT22;24237;50.106;20.014;2023-04-03T13:10:03;6.60;98.10
38456;DHT22;24237;50.106;20.014;2023-04-03T13:12:30;7.50;97.70
38456;DHT22;24237;50.106;20.014;2023-04-03T13:14:59;7.30;96.90
38456;DHT22;24237;50.106;20.014;2023-04-03T13:17:26;7.30;97.90
38456;DHT22;24237;50.106;20.014;2023-04-03T13:19:53;7.50;96.90
38456;DHT22;24237;50.106;20.014;2023-04-03T13:22:36;7.30;96.60
38456;DHT22;24237;50.106;20.014;2023-04-03T13:25:10;7.50;95.30
38456;DHT22;24237;50.106;20.014;2023-04-03T13:27:38;7.80;94.80
38456;DHT22;24237;50.106;20.014;2023-04-03T13:30:06;7.40;95.50
38456;DHT22;24237;50.106;20.014;2023-04-03T13:32:32;7.50;95.50
38456;DHT22;24237;50.106;20.014;2023-04-03T13:34:58;8.10;95.20
38456;DHT22;24237;50.106;20.014;2023-04-03T13:37:30;7.80;96.00
38456;DHT22;24237;50.106;20.014;2023-04-03T13:42:34;7.70;96.20
38456;DHT22;24237;50.106;20.014;2023-04-03T13:45:21;8.20;95.40
38456;DHT22;24237;50.106;20.014;2023-04-03T13:47:50;8.00;95.70
38456;DHT22;24237;50.106;20.014;2023-04-03T13:52:54;8.40;94.30
38456;DHT22;24237;50.106;20.014;2023-04-03T13:55:27;8.40;94.80
38456;DHT22;24237;50.106;20.014;2023-04-03T13:58:01;8.60;94.50
38456;DHT22;24237;50.106;20.014;2023-04-03T14:00:46;8.90;94.50
38456;DHT22;24237;50.106;20.014;2023-04-03T14:03:42;8.30;94.20
38456;DHT22;24237;50.106;20.014;2023-04-03T14:06:12;8.10;95.20
38456;DHT22;24237;50.106;20.014;2023-04-03T14:08:38;8.30;94.50
38456;DHT22;24237;50.106;20.014;2023-04-03T14:11:16;8.40;95.00
38456;DHT22;24237;50.106;20.014;2023-04-03T14:13:43;8.20;95.60
38456;DHT22;24237;50.106;20.014;2023-04-03T14:16:16;8.30;95.50
38456;DHT22;24237;50.106;20.014;2023-04-03T14:18:44;8.60;95.40
38456;DHT22;24237;50.106;20.014;2023-04-03T14:21:16;8.60;95.60
38456;DHT22;24237;50.106;20.014;2023-04-03T14:23:42;8.50;94.80
38456;DHT22;24237;50.106;20.014;2023-04-03T14:26:19;8.50;94.30
38456;DHT22;24237;50.106;20.014;2023-04-03T14:28:47;8.90;93.50
38456;DHT22;24237;50.106;20.014;2023-04-03T14:31:14;9.00;94.00
38456;DHT22;24237;50.106;20.014;2023-04-03T14:33:41;9.20;93.50
38456;DHT22;24237;50.106;20.014;2023-04-03T14:38:38;9.00;94.10
38456;DHT22;24237;50.106;20.014;2023-04-03T14:41:03;8.90;95.00
38456;DHT22;24237;50.106;20.014;2023-04-03T14:43:29;8.60;92.50
38456;DHT22;24237;50.106;20.014;2023-04-03T14:45:54;8.20;93.90
38456;DHT22;24237;50.106;20.014;2023-04-03T14:48:25;7.90;94.40
38456;DHT22;24237;50.106;20.014;2023-04-03T14:50:52;7.60;94.10
38456;DHT22;24237;50.106;20.014;2023-04-03T14:53:20;7.00;94.60
38456;DHT22;24237;50.106;20.014;2023-04-03T14:55:50;7.60;93.70
38456;DHT22;24237;50.106;20.014;2023-04-03T14:58:18;7.70;92.30
38456;DHT22;24237;50.106;20.014;2023-04-03T15:00:44;7.70;93.80
38456;DHT22;24237;50.106;20.014;2023-04-03T15:03:15;8.00;94.20
38456;DHT22;24237;50.106;20.014;2023-04-03T15:05:43;9.20;91.50
38456;DHT22;24237;50.106;20.014;2023-04-03T15:08:13;9.90;90.20
38456;DHT22;24237;50.106;20.014;2023-04-03T15:10:42;9.80;90.40
38456;DHT22;24237;50.106;20.014;2023-04-03T15:13:08;9.10;90.50
38456;DHT22;24237;50.106;20.014;2023-04-03T15:15:36;8.10;91.20
38456;DHT22;24237;50.106;20.014;2023-04-03T15:18:02;7.80;91.90
38456;DHT22;24237;50.106;20.014;2023-04-03T15:20:29;8.20;91.80
38456;DHT22;24237;50.106;20.014;2023-04-03T15:22:56;8.30;90.70
38456;DHT22;24237;50.106;20.014;2023-04-03T15:25:22;8.50;90.40
38456;DHT22;24237;50.106;20.014;2023-04-03T15:27:48;9.20;90.30
38456;DHT22;24237;50.106;20.014;2023-04-03T15:30:17;9.40;87.00
38456;DHT22;24237;50.106;20.014;2023-04-03T15:32:43;9.30;87.20
38456;DHT22;24237;50.106;20.014;2023-04-03T15:35:09;8.80;87.80
38456;DHT22;24237;50.106;20.014;2023-04-03T15:40:56;8.60;90.80
38456;DHT22;24237;50.106;20.014;2023-04-03T15:43:23;7.40;91.30
38456;DHT22;24237;50.106;20.014;2023-04-03T15:45:49;7.80;92.50
38456;DHT22;24237;50.106;20.014;2023-04-03T15:48:27;8.60;91.70
38456;DHT22;24237;50.106;20.014;2023-04-03T15:51:15;10.30;90.00
38456;DHT22;24237;50.106;20.014;2023-04-03T15:53:40;10.70;83.90
38456;DHT22;24237;50.106;20.014;2023-04-03T15:56:07;10.30;84.90
38456;DHT22;24237;50.106;20.014;2023-04-03T15:58:35;9.60;85.30
38456;DHT22;24237;50.106;20.014;2023-04-03T16:01:01;9.10;85.50
38456;DHT22;24237;50.106;20.014;2023-04-03T16:03:27;8.00;87.60
38456;DHT22;24237;50.106;20.014;2023-04-03T16:05:53;7.70;90.20
38456;DHT22;24237;50.106;20.014;2023-04-03T16:08:21;7.00;90.50
38456;DHT22;24237;50.106;20.014;2023-04-03T16:10:47;6.80;91.60
38456;DHT22;24237;50.106;20.014;2023-04-03T16:13:14;6.80;91.30
38456;DHT22;24237;50.106;20.014;2023-04-03T16:15:40;6.80;92.10
38456;DHT22;24237;50.106;20.014;2023-04-03T16:18:06;6.80;92.20
38456;DHT22;24237;50.106;20.014;2023-04-03T16:20:34;6.50;91.70
38456;DHT22;24237;50.106;20.014;2023-04-03T16:23:01;6.50;91.90
38456;DHT22;24237;50.106;20.014;2023-04-03T16:25:27;6.90;91.00
38456;DHT22;24237;50.106;20.014;2023-04-03T16:27:53;7.20;91.00
38456;DHT22;24237;50.106;20.014;2023-04-03T16:30:18;6.90;90.50
38456;DHT22;24237;50.106;20.014;2023-04-03T16:32:45;6.40;91.30
38456;DHT22;24237;50.106;20.014;2023-04-03T16:35:11;6.20;91.80
38456;DHT22;24237;50.106;20.014;2023-04-03T16:37:37;6.10;92.00
38456;DHT22;24237;50.106;20.014;2023-04-03T16:40:05;5.80;91.90
38456;DHT22;24237;50.106;20.014;2023-04-03T16:42:31;5.70;92.80
38456;DHT22;24237;50.106;20.014;2023-04-03T16:44:57;5.70;92.50
38456;DHT22;24237;50.106;20.014;2023-04-03T16:47:25;5.50;93.20
38456;DHT22;24237;50.106;20.014;2023-04-03T16:49:51;5.40;93.40
38456;DHT22;24237;50.106;20.014;2023-04-03T16:52:16;5.50;93.50
38456;DHT22;24237;50.106;20.014;2023-04-03T16:54:42;5.70;92.90
38456;DHT22;24237;50.106;20.014;2023-04-03T16:57:08;5.80;93.00
38456;DHT22;24237;50.106;20.014;2023-04-03T16:59:33;5.70;93.00
38456;DHT22;24237;50.106;20.014;2023-04-03T17:01:59;5.60;93.20
38456;DHT22;24237;50.106;20.014;2023-04-03T17:04:25;5.40;93.50
38456;DHT22;24237;50.106;20.014;2023-04-03T17:06:52;5.40;94.60
38456;DHT22;24237;50.106;20.014;2023-04-03T17:09:18;5.20;94.60
38456;DHT22;24237;50.106;20.014;2023-04-03T17:11:46;5.30;94.60
38456;DHT22;24237;50.106;20.014;2023-04-03T17:14:11;5.20;95.10
38456;DHT22;24237;50.106;20.014;2023-04-03T17:16:38;5.10;95.40
38456;DHT22;24237;50.106;20.014;2023-04-03T17:19:03;5.00;95.40
38456;DHT22;24237;50.106;20.014;2023-04-03T17:21:31;5.20;96.10
38456;DHT22;24237;50.106;20.014;2023-04-03T17:24:01;5.30;96.10
38456;DHT22;24237;50.106;20.014;2023-04-03T17:26:27;5.00;96.60
38456;DHT22;24237;50.106;20.014;2023-04-03T17:28:53;5.20;97.00
38456;DHT22;24237;50.106;20.014;2023-04-03T17:31:19;4.90;96.90